| time (UTC) | temp F | wind direction | speed MPH | gust MPH | rain 1hr in | rain 24hr in | rain mn in | humidity % | barometer mb |
| 20260507113038 | 55 | 360 | 0.0 | 0.0 | 0.00 | 0.00 | 0.00 | 34 | 1017.0 |
| 20260507111543 | 55 | 360 | 0.0 | 0.0 | 0.00 | 0.00 | 0.00 | 33 | 1017.0 |
| 20260507110035 | 55 | 360 | 0.0 | 3.0 | 0.00 | 0.00 | 0.00 | 35 | 1017.2 |
| 20260507104534 | 55 | 360 | 0.0 | 0.0 | 0.00 | 0.00 | 0.00 | 36 | 1017.2 |
| 20260507103035 | 55 | 360 | 0.0 | 0.0 | 0.00 | 0.00 | 0.00 | 36 | 1017.2 |
| 20260507101531 | 55 | 360 | 0.0 | 2.0 | 0.00 | 0.00 | 0.00 | 35 | 1017.4 |
| 20260507100033 | 55 | 360 | 0.0 | 3.0 | 0.00 | 0.00 | 0.00 | 36 | 1017.5 |
| 20260507094530 | 55 | 360 | 0.0 | 5.0 | 0.00 | 0.00 | 0.00 | 36 | 1017.5 |
| 20260507093034 | 55 | 360 | 0.0 | 3.0 | 0.00 | 0.00 | 0.00 | 37 | 1017.7 |
| 20260507091524 | 55 | 360 | 0.0 | 4.0 | 0.00 | 0.00 | 0.00 | 38 | 1017.8 |
| 20260507090022 | 54 | 360 | 0.0 | 3.0 | 0.00 | 0.00 | 0.00 | 39 | 1018.1 |
| 20260507084520 | 54 | 360 | 0.0 | 5.0 | 0.00 | 0.00 | 0.00 | 41 | 1018.2 |
| 20260507083026 | 53 | 360 | 0.0 | 1.0 | 0.00 | 0.00 | 0.00 | 42 | 1018.3 |
| 20260507081528 | 53 | 360 | 0.0 | 2.0 | 0.00 | 0.00 | 0.00 | 43 | 1018.3 |
| 20260507080020 | 53 | 360 | 0.0 | 4.0 | 0.00 | 0.00 | 0.00 | 46 | 1018.4 |
| 20260507074516 | 52 | 360 | 0.0 | 6.0 | 0.00 | 0.00 | 0.00 | 52 | 1018.4 |
| 20260507073012 | 53 | 360 | 2.0 | 5.0 | 0.00 | 0.00 | 0.00 | 51 | 1018.6 |
| 20260507071510 | 53 | 360 | 2.0 | 5.0 | 0.00 | 0.00 | 0.00 | 47 | 1018.8 |
| 20260507070010 | 55 | 360 | 3.0 | 5.0 | 0.00 | 0.00 | 0.00 | 46 | 1019.0 |
| 20260507064505 | 55 | 360 | 0.0 | 4.0 | 0.00 | 0.00 | 0.00 | 38 | 1018.9 |
| 20260507063004 | 55 | 360 | 1.0 | 10.0 | 0.00 | 0.00 | 0.00 | 38 | 1019.0 |
| 20260507061506 | 54 | 360 | 0.0 | 4.0 | 0.00 | 0.00 | 0.00 | 41 | 1019.0 |
| 20260507060004 | 53 | 360 | 1.0 | 5.0 | 0.00 | 0.00 | 0.00 | 43 | 1019.3 |
| 20260507054610 | 49 | 360 | 1.0 | 3.0 | 0.00 | 0.00 | 0.00 | 61 | 1019.3 |
| 20260507053101 | 49 | 360 | 0.0 | 3.0 | 0.00 | 0.00 | 0.00 | 64 | 1019.3 |
| 20260507051600 | 49 | 360 | 0.0 | 2.0 | 0.00 | 0.00 | 0.00 | 65 | 1019.5 |
| 20260507044558 | 49 | 360 | 1.0 | 3.0 | 0.00 | 0.00 | 0.00 | 65 | 1019.4 |
| 20260507043102 | 50 | 360 | 0.0 | 0.0 | 0.00 | 0.00 | 0.00 | 64 | 1019.2 |
| 20260507041608 | 51 | 360 | 0.0 | 0.0 | 0.00 | 0.00 | 0.00 | 63 | 1019.2 |
| 20260507040059 | 51 | 360 | 0.0 | 0.0 | 0.00 | 0.00 | 0.00 | 62 | 1019.2 |
| 20260507034605 | 51 | 360 | 0.0 | 3.0 | 0.00 | 0.00 | 0.00 | 62 | 1019.1 |
| 20260507033056 | 51 | 360 | 0.0 | 3.0 | 0.00 | 0.00 | 0.00 | 64 | 1018.9 |
| 20260507031558 | 51 | 360 | 0.0 | 2.0 | 0.00 | 0.00 | 0.00 | 67 | 1018.8 |
| 20260507024553 | 50 | 360 | 2.0 | 4.0 | 0.00 | 0.00 | 0.00 | 74 | 1018.7 |
| 20260507023109 | 51 | 360 | 1.0 | 4.0 | 0.00 | 0.00 | 0.00 | 72 | 1018.7 |
| 20260507021555 | 52 | 360 | 1.0 | 6.0 | 0.00 | 0.00 | 0.00 | 70 | 1018.6 |
| 20260507020053 | 53 | 123 | 0.0 | 9.0 | 0.00 | 0.00 | 0.00 | 67 | 1018.8 |
| 20260507014605 | 54 | 121 | 3.0 | 7.0 | 0.00 | 0.00 | 0.00 | 65 | 1018.8 |
| 20260507013110 | 55 | 69 | 4.0 | 9.0 | 0.00 | 0.00 | 0.00 | 61 | 1018.8 |
| 20260507011550 | 57 | 141 | 2.0 | 11.0 | 0.00 | 0.00 | 0.00 | 60 | 1018.9 |
| 20260507010050 | 57 | 103 | 5.0 | 10.0 | 0.00 | 0.00 | 0.00 | 58 | 1018.8 |
| 20260507004550 | 58 | 86 | 0.0 | 9.0 | 0.00 | 0.00 | 0.00 | 59 | 1018.8 |
| 20260507003048 | 58 | 155 | 1.0 | 9.0 | 0.00 | 0.00 | 0.00 | 59 | 1018.9 |
| 20260507001607 | 57 | 118 | 5.0 | 10.0 | 0.00 | 0.00 | 0.00 | 59 | 1019.0 |
| 20260507000049 | 58 | 118 | 3.0 | 9.0 | 0.00 | 0.00 | 0.00 | 57 | 1019.0 |
| 20260506234547 | 58 | 113 | 4.0 | 12.0 | 0.00 | 0.00 | 0.00 | 58 | 1018.8 |
| 20260506233048 | 57 | 124 | 2.0 | 12.0 | 0.00 | 0.00 | 0.00 | 59 | 1018.8 |
| 20260506231547 | 57 | 109 | 7.0 | 13.0 | 0.00 | 0.00 | 0.00 | 57 | 1018.9 |
| 20260506230042 | 58 | 164 | 4.0 | 10.0 | 0.00 | 0.00 | 0.00 | 56 | 1018.9 |
| 20260506224542 | 58 | 61 | 5.0 | 12.0 | 0.00 | 0.00 | 0.00 | 56 | 1019.0 |
| 20260506223053 | 58 | 92 | 3.0 | 11.0 | 0.00 | 0.00 | 0.00 | 57 | 1019.0 |
| 20260506221540 | 59 | 130 | 5.0 | 9.0 | 0.00 | 0.00 | 0.00 | 56 | 1019.3 |
| 20260506220040 | 58 | 82 | 2.0 | 10.0 | 0.00 | 0.00 | 0.00 | 59 | 1019.6 |
| 20260506214541 | 57 | 110 | 4.0 | 9.0 | 0.00 | 0.00 | 0.00 | 59 | 1019.8 |
| 20260506213038 | 59 | 97 | 5.0 | 11.0 | 0.00 | 0.00 | 0.00 | 56 | 1019.9 |
| 20260506211534 | 57 | 330 | 3.0 | 9.0 | 0.00 | 0.00 | 0.00 | 59 | 1020.1 |
| 20260506210038 | 58 | 40 | 1.0 | 10.0 | 0.00 | 0.00 | 0.00 | 61 | 1020.2 |
| 20260506204633 | 57 | 349 | 1.0 | 9.0 | 0.00 | 0.00 | 0.00 | 60 | 1020.3 |
| 20260506203040 | 56 | 131 | 2.0 | 9.0 | 0.00 | 0.00 | 0.00 | 62 | 1020.5 |
| 20260506201529 | 56 | 166 | 1.0 | 11.0 | 0.00 | 0.00 | 0.00 | 60 | 1020.3 |
| 20260506200028 | 56 | 144 | 4.0 | 11.0 | 0.00 | 0.00 | 0.00 | 63 | 1020.7 |
| 20260506194527 | 55 | 192 | 1.0 | 6.0 | 0.00 | 0.00 | 0.00 | 63 | 1020.8 |
| 20260506193025 | 56 | 125 | 3.0 | 7.0 | 0.00 | 0.00 | 0.00 | 64 | 1020.6 |
| 20260506191523 | 56 | 114 | 2.0 | 10.0 | 0.00 | 0.00 | 0.00 | 64 | 1020.7 |
| 20260506190022 | 56 | 36 | 1.0 | 5.0 | 0.00 | 0.00 | 0.00 | 62 | 1020.6 |
| 20260506184521 | 54 | 196 | 2.0 | 6.0 | 0.00 | 0.00 | 0.00 | 65 | 1020.8 |
| 20260506183022 | 55 | 355 | 2.0 | 4.0 | 0.00 | 0.00 | 0.00 | 63 | 1021.0 |
| 20260506181521 | 55 | 201 | 0.0 | 4.0 | 0.00 | 0.00 | 0.00 | 64 | 1021.1 |
| 20260506180020 | 57 | 124 | 1.0 | 5.0 | 0.00 | 0.00 | 0.00 | 56 | 1021.1 |
| 20260506174510 | 57 | 134 | 2.0 | 5.0 | 0.00 | 0.00 | 0.00 | 59 | 1021.0 |
| 20260506173007 | 56 | 9 | 2.0 | 5.0 | 0.00 | 0.00 | 0.00 | 54 | 1021.0 |
| 20260506171504 | 56 | 281 | 2.0 | 5.0 | 0.00 | 0.00 | 0.00 | 55 | 1021.0 |
| 20260506170100 | 55 | 355 | 1.0 | 4.0 | 0.00 | 0.00 | 0.00 | 55 | 1021.0 |
| 20260506164556 | 54 | 321 | 2.0 | 6.0 | 0.00 | 0.00 | 0.00 | 56 | 1021.0 |
| 20260506163051 | 54 | 348 | 2.0 | 5.0 | 0.00 | 0.00 | 0.00 | 56 | 1021.1 |
| 20260506161554 | 53 | 294 | 2.0 | 5.0 | 0.00 | 0.00 | 0.00 | 58 | 1021.0 |
| 20260506160044 | 52 | 296 | 0.0 | 4.0 | 0.00 | 0.00 | 0.00 | 60 | 1021.0 |
| 20260506154540 | 50 | 299 | 2.0 | 4.0 | 0.00 | 0.00 | 0.00 | 60 | 1020.9 |
| 20260506153038 | 49 | 355 | 0.0 | 3.0 | 0.00 | 0.00 | 0.00 | 64 | 1020.9 |
| 20260506151531 | 46 | 360 | 1.0 | 3.0 | 0.00 | 0.00 | 0.00 | 65 | 1021.0 |
| 20260506150030 | 45 | 360 | 1.0 | 2.0 | 0.00 | 0.00 | 0.00 | 63 | 1020.9 |
| 20260506144526 | 44 | 360 | 0.0 | 2.0 | 0.00 | 0.00 | 0.00 | 69 | 1021.0 |
| 20260506143019 | 42 | 360 | 0.0 | 3.0 | 0.00 | 0.00 | 0.00 | 73 | 1020.8 |
| 20260506141515 | 41 | 360 | 0.0 | 0.0 | 0.00 | 0.00 | 0.00 | 78 | 1020.7 |
| 20260506140012 | 39 | 360 | 0.0 | 3.0 | 0.00 | 0.00 | 0.00 | 82 | 1020.4 |
| 20260506134519 | 39 | 360 | 0.0 | 0.0 | 0.00 | 0.00 | 0.00 | 82 | 1020.4 |
| 20260506133004 | 38 | 360 | 0.0 | 0.0 | 0.00 | 0.00 | 0.00 | 84 | 1020.1 |
| 20260506131503 | 38 | 360 | 0.0 | 2.0 | 0.00 | 0.00 | 0.00 | 87 | 1020.0 |
| 20260506130059 | 37 | 360 | 0.0 | 3.0 | 0.00 | 0.00 | 0.00 | 88 | 1019.7 |
| 20260506124557 | 36 | 360 | 2.0 | 3.0 | 0.00 | 0.00 | 0.00 | 90 | 1019.6 |
| 20260506123056 | 36 | 360 | 1.0 | 3.0 | 0.00 | 0.00 | 0.00 | 91 | 1019.4 |
| 20260506121604 | 35 | 360 | 1.0 | 3.0 | 0.00 | 0.00 | 0.00 | 93 | 1019.2 |
| 20260506120053 | 35 | 360 | 2.0 | 3.0 | 0.00 | 0.00 | 0.00 | 94 | 1019.3 |
| 20260506114554 | 35 | 360 | 1.0 | 3.0 | 0.00 | 0.00 | 0.00 | 95 | 1019.2 |